Time;durP1;ratioP1;P1;durP2;ratioP2;P2;SDS_P1;SDS_P2;PMS_P1;PMS_P2;Temp;Humidity;BMP_temperature;BMP_pressure;BME280_temperature;BME280_humidity;BME280_pressure;Samples;Min_cycle;Max_cycle;Signal;HPM_P1;HPM_P2
2023/08/01 00:01:23;;;;;;;6.55;4.40;;;;;;;20.04;71.52;96039.44;4922371;28;20319;-80
2023/08/01 00:03:48;;;;;;;6.20;4.05;;;;;;;19.99;71.59;96037.78;4904632;28;20335;-79
2023/08/01 00:06:14;;;;;;;8.45;3.95;;;;;;;20.00;71.39;96035.91;4907476;28;20666;-79
2023/08/01 00:08:39;;;;;;;8.00;4.45;;;;;;;20.02;71.74;96029.19;4924949;28;20412;-81
2023/08/01 00:11:05;;;;;;;8.73;4.75;;;;;;;20.09;71.12;96023.34;4923722;28;20162;-80
2023/08/01 00:13:30;;;;;;;5.88;3.97;;;;;;;19.93;72.08;96025.91;4922172;28;20194;-80
2023/08/01 00:15:56;;;;;;;8.63;4.10;;;;;;;19.96;71.97;96003.31;4905681;28;20452;-79
2023/08/01 00:18:21;;;;;;;6.20;4.00;;;;;;;19.96;71.60;96008.59;4925142;28;20210;-79
2023/08/01 00:20:47;;;;;;;7.03;4.43;;;;;;;19.95;71.74;96002.56;4925057;28;20285;-80
2023/08/01 00:23:12;;;;;;;7.28;4.10;;;;;;;19.69;72.36;95991.56;4944985;28;20288;-79
2023/08/01 00:25:38;;;;;;;7.28;4.30;;;;;;;19.63;73.30;95983.09;4962041;28;20303;-80
2023/08/01 00:28:03;;;;;;;7.57;4.53;;;;;;;19.67;72.64;95983.22;4911655;28;20041;-79
2023/08/01 00:30:29;;;;;;;8.52;4.28;;;;;;;19.62;73.11;95987.63;4944284;28;20347;-80
2023/08/01 00:32:54;;;;;;;7.47;3.90;;;;;;;19.87;72.82;95984.97;4928970;28;20219;-81
2023/08/01 00:35:20;;;;;;;6.95;4.35;;;;;;;19.73;73.35;95976.59;4929823;28;20544;-80
2023/08/01 00:37:46;;;;;;;7.90;4.32;;;;;;;19.77;73.22;95972.22;4927048;28;20372;-80
2023/08/01 00:40:12;;;;;;;6.78;4.32;;;;;;;19.76;73.21;95970.69;4929522;28;20293;-81
2023/08/01 00:42:38;;;;;;;5.50;4.05;;;;;;;19.94;72.29;95950.81;4927480;28;20667;-81
2023/08/01 00:45:04;;;;;;;8.73;4.22;;;;;;;19.93;72.62;95951.94;4944379;28;20363;-81
2023/08/01 00:47:30;;;;;;;7.72;4.18;;;;;;;19.99;72.60;95947.94;4928735;28;20387;-80
2023/08/01 00:49:55;;;;;;;6.10;3.97;;;;;;;19.58;74.21;95949.78;4946120;28;20580;-79
2023/08/01 00:52:21;;;;;;;8.60;4.05;;;;;;;19.64;73.79;95955.59;4946800;28;20680;-80
2023/08/01 00:54:47;;;;;;;5.60;3.95;;;;;;;19.59;73.84;95959.25;4926176;28;20249;-82
2023/08/01 00:57:12;;;;;;;7.53;4.32;;;;;;;19.82;73.37;95953.50;4927472;28;20538;-82
2023/08/01 00:59:38;;;;;;;5.03;4.22;;;;;;;19.83;73.16;95958.44;4942210;28;20237;-80
2023/08/01 01:02:04;;;;;;;7.30;4.35;;;;;;;19.96;72.70;95951.28;4941436;28;20208;-82
2023/08/01 01:04:29;;;;;;;7.40;4.30;;;;;;;19.98;72.78;95950.91;5001067;23;20181;-86
2023/08/01 01:07:03;;;;;;;5.40;4.05;;;;;;;19.88;73.50;95961.94;4934279;28;20193;-86
2023/08/01 01:09:33;;;;;;;8.27;4.87;;;;;;;19.70;73.39;95948.22;4939319;28;20222;-87
2023/08/01 01:11:59;;;;;;;8.55;4.57;;;;;;;19.87;73.19;95963.84;4973552;28;20185;-88
2023/08/01 01:14:26;;;;;;;5.95;4.15;;;;;;;19.83;73.88;95965.63;4956097;28;20256;-85
2023/08/01 01:16:51;;;;;;;7.43;4.20;;;;;;;19.68;73.64;95942.50;4942116;28;20188;-83
2023/08/01 01:19:17;;;;;;;8.35;4.43;;;;;;;20.04;72.65;95977.91;4938453;28;20370;-86
2023/08/01 01:21:43;;;;;;;8.52;4.65;;;;;;;19.93;72.99;95978.34;4941396;28;20194;-84
2023/08/01 01:24:10;;;;;;;6.75;4.40;;;;;;;19.95;72.77;95970.09;4949800;28;20195;-86
2023/08/01 01:26:36;;;;;;;8.73;4.15;;;;;;;19.88;73.04;96002.38;4942847;28;20165;-86
2023/08/01 01:29:05;;;;;;;8.82;4.40;;;;;;;19.99;73.16;95987.56;4953068;28;20318;-84
2023/08/01 01:31:34;;;;;;;6.45;4.13;;;;;;;20.03;72.70;95985.03;4941146;28;20359;-87
2023/08/01 01:34:00;;;;;;;6.32;4.18;;;;;;;20.10;72.60;95987.09;4929785;28;20170;-85
2023/08/01 01:36:26;;;;;;;6.00;4.05;;;;;;;20.04;72.63;95975.25;4939007;28;20323;-86
2023/08/01 01:38:51;;;;;;;6.25;4.55;;;;;;;20.10;72.29;95979.97;4935071;28;20840;-83
2023/08/01 01:41:17;;;;;;;8.68;4.47;;;;;;;20.09;72.14;95983.69;4941371;28;20233;-82
2023/08/01 01:43:42;;;;;;;5.63;4.25;;;;;;;19.96;72.98;95974.25;4938636;28;20199;-84
2023/08/01 01:46:07;;;;;;;7.57;4.38;;;;;;;20.13;72.47;95981.16;4919172;28;20481;-86
2023/08/01 01:48:33;;;;;;;7.05;4.20;;;;;;;20.05;72.37;95963.56;4936572;28;20291;-85
2023/08/01 01:50:58;;;;;;;7.40;4.30;;;;;;;20.18;72.03;95968.47;4953442;28;20208;-83
2023/08/01 01:53:24;;;;;;;5.85;4.32;;;;;;;20.16;72.26;95957.47;4939725;28;20270;-83
2023/08/01 01:55:49;;;;;;;7.35;4.80;;;;;;;20.10;72.27;95939.53;4950114;28;20180;-83
2023/08/01 01:58:15;;;;;;;5.72;3.90;;;;;;;20.20;72.03;95953.06;4930325;28;20317;-83
2023/08/01 02:00:40;;;;;;;5.80;4.03;;;;;;;20.16;72.14;95943.50;4915372;28;20233;-83
2023/08/01 02:03:07;;;;;;;6.18;4.40;;;;;;;20.13;72.62;95934.34;4912364;28;20203;-86
2023/08/01 02:05:32;;;;;;;6.47;4.05;;;;;;;20.22;72.58;95947.44;4893939;28;20201;-83
2023/08/01 02:08:00;;;;;;;6.07;4.38;;;;;;;20.14;71.99;95919.28;4941907;28;20356;-85
2023/08/01 02:10:25;;;;;;;6.97;3.95;;;;;;;20.19;72.72;95933.00;4943120;28;20436;-82
2023/08/01 02:12:51;;;;;;;7.78;4.20;;;;;;;20.17;72.15;95931.84;4914547;28;20033;-82
2023/08/01 02:15:16;;;;;;;6.47;4.57;;;;;;;20.16;72.31;95909.13;4892827;28;20250;-84
2023/08/01 02:17:42;;;;;;;7.55;3.80;;;;;;;20.25;72.33;95927.50;4916389;28;20520;-82
2023/08/01 02:20:07;;;;;;;6.78;5.00;;;;;;;20.19;72.23;95911.88;4929258;28;20169;-83
2023/08/01 02:22:33;;;;;;;8.93;4.82;;;;;;;20.24;72.38;95892.38;4926323;28;20193;-83
2023/08/01 02:24:58;;;;;;;6.45;4.38;;;;;;;20.11;72.44;95869.75;4934362;28;20371;-86
2023/08/01 02:27:24;;;;;;;5.55;3.80;;;;;;;20.19;72.27;95879.41;4925561;28;20357;-86
2023/08/01 02:29:50;;;;;;;8.07;4.13;;;;;;;20.11;72.25;95888.25;4930991;28;20208;-86
2023/08/01 02:32:16;;;;;;;7.53;3.83;;;;;;;20.07;72.74;95885.50;4906127;28;20212;-84
2023/08/01 02:34:41;;;;;;;6.50;4.32;;;;;;;20.08;72.88;95889.66;4946820;28;20279;-83
2023/08/01 02:37:07;;;;;;;6.20;4.13;;;;;;;20.26;71.92;95907.88;4916020;28;20213;-83
2023/08/01 02:39:32;;;;;;;7.10;4.10;;;;;;;19.97;73.04;95897.31;4916907;28;20197;-85
2023/08/01 02:41:58;;;;;;;7.65;4.60;;;;;;;20.09;73.07;95907.06;4901110;28;20235;-84
2023/08/01 02:44:23;;;;;;;6.60;4.43;;;;;;;20.14;72.40;95901.53;4913088;28;20239;-86
2023/08/01 02:46:48;;;;;;;7.90;4.28;;;;;;;20.16;72.37;95898.56;4917861;28;20121;-85
2023/08/01 02:49:14;;;;;;;6.22;4.45;;;;;;;20.25;72.37;95901.81;4945803;28;20167;-84
2023/08/01 02:51:39;;;;;;;6.78;4.00;;;;;;;20.27;72.32;95885.63;4930401;28;20218;-86
2023/08/01 02:54:05;;;;;;;6.93;4.70;;;;;;;20.00;72.80;95888.72;4932722;28;20195;-88
2023/08/01 02:56:30;;;;;;;8.70;4.25;;;;;;;20.07;72.36;95888.16;4905876;28;20409;-85
2023/08/01 02:58:55;;;;;;;6.22;4.15;;;;;;;20.03;72.58;95881.97;4902268;28;20216;-88
2023/08/01 03:01:21;;;;;;;7.20;4.00;;;;;;;20.10;72.48;95871.63;4918566;28;20205;-87
2023/08/01 03:03:46;;;;;;;6.55;4.18;;;;;;;19.95;73.11;95875.75;4906316;28;20312;-86
2023/08/01 03:06:12;;;;;;;9.40;4.53;;;;;;;20.04;73.23;95875.59;4922686;28;20151;-86
2023/08/01 03:08:38;;;;;;;7.43;4.28;;;;;;;19.99;72.52;95866.03;4935831;28;20195;-84
2023/08/01 03:11:03;;;;;;;7.70;4.20;;;;;;;20.11;72.90;95867.09;4918820;28;20258;-84
2023/08/01 03:13:29;;;;;;;8.27;4.47;;;;;;;20.09;72.44;95858.75;4934732;28;20335;-87
2023/08/01 03:15:54;;;;;;;6.90;3.88;;;;;;;19.91;73.05;95858.25;4915569;28;20119;-83
2023/08/01 03:18:19;;;;;;;6.45;3.70;;;;;;;19.88;73.05;95867.66;4941848;28;20169;-85
2023/08/01 03:20:45;;;;;;;6.22;4.07;;;;;;;20.02;72.85;95875.19;4975093;23;20095;-85
2023/08/01 03:23:10;;;;;;;6.88;4.43;;;;;;;19.79;73.38;95862.50;4961656;28;20306;-86
2023/08/01 03:25:36;;;;;;;7.20;4.53;;;;;;;19.99;72.75;95873.97;4959752;28;20178;-87
2023/08/01 03:28:01;;;;;;;8.55;5.18;;;;;;;20.00;73.21;95874.75;4958962;28;20195;-87
2023/08/01 03:30:27;;;;;;;7.32;4.70;;;;;;;20.09;72.48;95864.78;4959882;28;20029;-85
2023/08/01 03:32:52;;;;;;;7.03;4.75;;;;;;;20.06;72.48;95849.59;4963943;28;20101;-85
2023/08/01 03:35:18;;;;;;;7.18;5.03;;;;;;;20.17;72.28;95865.75;4958636;28;20243;-88
2023/08/01 03:37:43;;;;;;;8.57;5.72;;;;;;;20.05;72.76;95857.88;4943938;28;20427;-87
2023/08/01 03:40:12;;;;;;;6.97;5.20;;;;;;;19.90;73.25;95840.91;4958047;28;20202;-85
2023/08/01 03:42:38;;;;;;;8.27;5.57;;;;;;;20.02;72.14;95833.66;4974484;28;20283;-86
2023/08/01 03:45:05;;;;;;;11.25;5.32;;;;;;;19.98;73.01;95847.88;4972286;28;20222;-84
2023/08/01 03:47:30;;;;;;;6.20;5.00;;;;;;;19.93;72.18;95835.69;4947046;28;20348;-84
2023/08/01 03:49:56;;;;;;;7.93;5.43;;;;;;;19.96;73.23;95832.41;4976924;28;20183;-87
2023/08/01 03:52:21;;;;;;;6.82;4.60;;;;;;;20.11;72.48;95833.50;4959181;28;20183;-86
2023/08/01 03:54:48;;;;;;;6.50;4.45;;;;;;;19.95;72.43;95838.78;4946022;28;20048;-86
2023/08/01 03:57:13;;;;;;;7.90;4.90;;;;;;;20.06;72.24;95838.28;4942799;28;20263;-86
2023/08/01 03:59:38;;;;;;;9.88;5.50;;;;;;;19.77;72.89;95803.19;4947867;28;20480;-85
2023/08/01 04:02:04;;;;;;;7.50;4.53;;;;;;;19.77;73.15;95805.84;4942175;28;20104;-83
2023/08/01 04:04:30;;;;;;;7.35;4.90;;;;;;;19.76;72.88;95815.63;4945167;28;20386;-85
2023/08/01 04:06:56;;;;;;;8.30;5.05;;;;;;;19.93;72.57;95841.00;4956911;28;20341;-86
2023/08/01 04:09:21;;;;;;;5.82;4.70;;;;;;;19.80;73.24;95829.69;4974964;28;20402;-87
2023/08/01 04:11:47;;;;;;;7.78;5.13;;;;;;;19.80;72.99;95831.56;4952986;28;20336;-84
2023/08/01 04:14:12;;;;;;;7.32;3.95;;;;;;;19.59;73.28;95811.38;4962426;28;20246;-88
2023/08/01 04:16:38;;;;;;;6.78;4.45;;;;;;;19.71;72.69;95817.72;4951802;28;20402;-85
2023/08/01 04:19:03;;;;;;;5.40;4.47;;;;;;;19.68;72.70;95831.59;4946810;28;20164;-87
2023/08/01 04:21:29;;;;;;;6.13;5.47;;;;;;;19.65;72.16;95831.16;4945977;28;20029;-86
2023/08/01 04:23:54;;;;;;;8.48;5.18;;;;;;;19.59;72.53;95803.47;4951780;28;20501;-87
2023/08/01 04:26:20;;;;;;;7.65;4.75;;;;;;;19.29;72.73;95784.53;4946588;28;20310;-88
2023/08/01 04:28:47;;;;;;;10.02;6.28;;;;;;;19.23;73.34;95778.72;4947764;28;20113;-86
2023/08/01 04:31:12;;;;;;;11.63;6.28;;;;;;;19.15;72.94;95776.97;4962345;28;20531;-83
2023/08/01 04:33:37;;;;;;;9.00;6.20;;;;;;;19.03;73.46;95813.94;4980443;28;20270;-84
2023/08/01 04:36:04;;;;;;;11.95;6.68;;;;;;;18.81;73.39;95800.06;4977074;28;20335;-85
2023/08/01 04:38:30;;;;;;;10.75;6.47;;;;;;;19.05;72.81;95809.09;4963840;28;20412;-86
2023/08/01 04:40:55;;;;;;;9.82;6.35;;;;;;;18.90;73.39;95805.25;4947441;28;20219;-88
2023/08/01 04:43:21;;;;;;;9.27;6.30;;;;;;;18.95;72.90;95806.91;4973483;28;20048;-88
2023/08/01 04:45:46;;;;;;;8.88;6.50;;;;;;;18.99;72.41;95800.66;4947614;28;20293;-83
2023/08/01 04:48:12;;;;;;;10.73;6.28;;;;;;;19.07;72.72;95814.81;4965398;28;20183;-83
2023/08/01 04:50:37;;;;;;;8.20;5.82;;;;;;;19.11;72.17;95813.06;4948865;28;20503;-84
2023/08/01 04:53:03;;;;;;;9.85;6.72;;;;;;;18.86;73.28;95807.78;4952087;28;20466;-86
2023/08/01 04:55:29;;;;;;;8.02;6.22;;;;;;;18.97;72.45;95802.84;4948774;28;20386;-85
2023/08/01 04:57:54;;;;;;;8.25;5.80;;;;;;;18.93;72.83;95809.13;4955611;28;20272;-83
2023/08/01 05:00:20;;;;;;;10.13;5.63;;;;;;;19.00;72.82;95814.59;4940700;28;21090;-85
2023/08/01 05:02:45;;;;;;;10.35;5.60;;;;;;;18.96;73.45;95800.56;4957558;28;20538;-87
2023/08/01 05:05:11;;;;;;;8.23;5.15;;;;;;;18.88;73.01;95813.53;4952745;28;20028;-82
2023/08/01 05:07:36;;;;;;;7.50;5.00;;;;;;;19.03;73.07;95814.69;4933338;28;20333;-84
2023/08/01 05:10:01;;;;;;;6.63;4.65;;;;;;;19.13;72.76;95833.84;4934438;28;20237;-85
2023/08/01 05:12:27;;;;;;;5.95;4.85;;;;;;;18.89;73.35;95822.97;4963765;28;20185;-86
2023/08/01 05:14:52;;;;;;;7.68;4.07;;;;;;;18.99;73.27;95821.00;4944600;28;20199;-82
2023/08/01 05:17:18;;;;;;;6.53;4.20;;;;;;;19.03;72.63;95812.06;4946666;28;20274;-83
2023/08/01 05:19:43;;;;;;;7.93;4.10;;;;;;;18.89;73.30;95807.13;4941264;28;20540;-85
2023/08/01 05:22:10;;;;;;;7.60;4.13;;;;;;;18.96;73.81;95803.94;4948328;28;20321;-88
2023/08/01 05:24:35;;;;;;;5.93;3.75;;;;;;;18.72;74.04;95794.91;4933422;28;20036;-85
2023/08/01 05:27:01;;;;;;;5.13;3.28;;;;;;;18.82;74.34;95809.56;4943298;28;20182;-86
2023/08/01 05:29:26;;;;;;;6.00;3.38;;;;;;;18.76;73.96;95797.66;4959521;28;20330;-83
2023/08/01 05:31:51;;;;;;;4.47;2.78;;;;;;;19.02;73.40;95812.38;4955664;28;20516;-84
2023/08/01 05:34:17;;;;;;;3.97;3.03;;;;;;;18.97;73.81;95817.91;4930574;28;20305;-84
2023/08/01 05:36:42;;;;;;;4.43;2.90;;;;;;;18.93;73.56;95801.22;4950041;28;20475;-84
2023/08/01 05:39:08;;;;;;;4.10;2.83;;;;;;;18.86;74.40;95802.53;4949846;28;20183;-86
2023/08/01 05:41:33;;;;;;;3.15;2.65;;;;;;;18.79;74.58;95807.56;4949221;28;20093;-87
2023/08/01 05:43:59;;;;;;;5.40;2.92;;;;;;;18.96;73.52;95814.50;4965030;28;20269;-86
2023/08/01 05:46:24;;;;;;;4.10;2.60;;;;;;;19.06;73.72;95810.66;4948045;28;20107;-83
2023/08/01 05:48:49;;;;;;;3.15;2.40;;;;;;;18.97;74.30;95805.50;4946256;28;20033;-86
2023/08/01 05:51:15;;;;;;;2.88;2.55;;;;;;;19.09;73.96;95804.72;4933000;28;20180;-83
2023/08/01 05:53:40;;;;;;;4.10;2.67;;;;;;;18.90;74.67;95800.00;4950641;28;20156;-83
2023/08/01 05:56:06;;;;;;;4.90;2.70;;;;;;;18.90;74.66;95815.81;4950723;28;20219;-84
2023/08/01 05:58:31;;;;;;;4.53;2.30;;;;;;;18.91;75.46;95822.63;4937655;28;20428;-85
2023/08/01 06:00:57;;;;;;;2.55;2.22;;;;;;;19.14;74.39;95833.50;4931620;28;20267;-85
2023/08/01 06:03:22;;;;;;;3.70;2.08;;;;;;;19.14;74.37;95830.88;4965120;28;20170;-85
2023/08/01 06:05:49;;;;;;;3.13;2.30;;;;;;;19.20;74.19;95824.25;4963665;28;20187;-83
2023/08/01 06:08:15;;;;;;;3.20;1.60;;;;;;;19.33;73.87;95813.66;4946833;28;20351;-83
2023/08/01 06:10:41;;;;;;;2.17;1.90;;;;;;;19.27;74.07;95810.47;4946378;28;20197;-85
2023/08/01 06:13:06;;;;;;;3.08;1.30;;;;;;;19.11;74.25;95813.06;4961410;28;20215;-85
2023/08/01 06:15:32;;;;;;;1.55;0.95;;;;;;;19.28;73.41;95826.00;4943569;28;20434;-83
2023/08/01 06:17:57;;;;;;;2.35;1.13;;;;;;;19.28;73.43;95818.06;4928494;28;20564;-85
2023/08/01 06:20:22;;;;;;;1.58;1.48;;;;;;;19.22;73.84;95802.81;4928009;28;20420;-84
2023/08/01 06:22:48;;;;;;;1.92;1.20;;;;;;;19.26;73.66;95820.28;4931918;28;20272;-84
2023/08/01 06:25:13;;;;;;;2.30;1.20;;;;;;;19.28;74.15;95817.31;4948105;28;20171;-90
2023/08/01 06:27:39;;;;;;;1.95;1.00;;;;;;;19.06;75.04;95813.28;4935599;28;20249;-86
2023/08/01 06:30:05;;;;;;;2.10;0.70;;;;;;;19.24;74.56;95819.84;4944781;28;20228;-85
2023/08/01 06:32:31;;;;;;;0.60;0.60;;;;;;;19.16;74.89;95815.47;4933143;28;20105;-83
2023/08/01 06:34:56;;;;;;;1.63;0.75;;;;;;;19.35;74.34;95814.09;4961212;28;20182;-85
2023/08/01 06:37:22;;;;;;;0.65;0.60;;;;;;;19.32;74.82;95812.88;4950537;28;20118;-88
2023/08/01 06:39:47;;;;;;;0.70;0.50;;;;;;;19.53;74.49;95807.44;4952728;28;20284;-84
2023/08/01 06:42:13;;;;;;;1.48;0.50;;;;;;;19.51;73.74;95804.38;4934482;28;20029;-85
2023/08/01 06:44:40;;;;;;;1.25;0.82;;;;;;;19.60;74.55;95812.94;4935950;28;20444;-84
2023/08/01 06:47:05;;;;;;;1.05;0.77;;;;;;;19.56;74.67;95809.41;4937238;28;20399;-84
2023/08/01 06:49:30;;;;;;;0.80;0.70;;;;;;;19.68;74.47;95803.31;4953643;28;20160;-83
2023/08/01 06:51:56;;;;;;;0.70;0.63;;;;;;;19.81;74.11;95802.19;4941308;28;20369;-85
2023/08/01 06:54:22;;;;;;;0.65;0.50;;;;;;;19.78;74.40;95802.09;4957355;28;20212;-86
2023/08/01 06:56:48;;;;;;;0.70;0.60;;;;;;;19.98;74.23;95806.41;4971662;28;20311;-86
2023/08/01 06:59:14;;;;;;;0.68;0.57;;;;;;;20.03;74.03;95800.06;4945060;28;20369;-85
2023/08/01 07:01:43;;;;;;;0.65;0.60;;;;;;;20.19;73.62;95816.72;4942520;28;20234;-86
2023/08/01 07:04:09;;;;;;;1.73;0.50;;;;;;;20.25;72.85;95811.94;4949340;28;20195;-85
2023/08/01 07:06:34;;;;;;;0.75;0.50;;;;;;;20.07;73.40;95800.94;4962051;28;20250;-86
2023/08/01 07:09:00;;;;;;;0.50;0.50;;;;;;;20.12;72.58;95821.84;4939982;28;20190;-86
2023/08/01 07:11:25;;;;;;;0.40;0.40;;;;;;;20.18;72.27;95827.63;4969760;28;20265;-85
2023/08/01 07:13:50;;;;;;;0.40;0.40;;;;;;;20.03;72.66;95813.28;4957741;28;20236;-84
2023/08/01 07:16:16;;;;;;;0.50;0.30;;;;;;;20.18;72.73;95831.03;4956792;28;20310;-85
2023/08/01 07:18:41;;;;;;;0.40;0.40;;;;;;;20.19;72.58;95831.81;4975659;28;20200;-85
2023/08/01 07:21:07;;;;;;;0.88;0.40;;;;;;;20.15;73.34;95829.09;4966100;28;20156;-88
2023/08/01 07:23:34;;;;;;;1.55;0.40;;;;;;;20.32;72.79;95849.16;4942118;28;20230;-84
2023/08/01 07:25:59;;;;;;;0.30;0.30;;;;;;;20.31;71.88;95866.09;4964728;28;20277;-86
2023/08/01 07:28:24;;;;;;;0.65;0.65;;;;;;;20.11;71.63;95861.81;4951671;28;20180;-86
2023/08/01 07:31:01;;;;;;;0.50;0.50;;;;;;;20.26;71.63;95870.88;4935761;28;20201;-85
2023/08/01 07:33:27;;;;;;;0.90;0.90;;;;;;;20.00;72.05;95853.63;4951070;28;20231;-90
2023/08/01 07:35:53;;;;;;;1.30;1.20;;;;;;;20.04;71.69;95880.13;4961337;28;20276;-86
2023/08/01 07:38:18;;;;;;;1.15;1.15;;;;;;;20.17;71.53;95879.72;4960511;28;20093;-85
2023/08/01 07:40:43;;;;;;;1.35;1.25;;;;;;;20.17;71.52;95881.63;4957506;28;20108;-88
2023/08/01 07:43:09;;;;;;;1.50;1.40;;;;;;;20.26;71.50;95884.09;4941977;28;20282;-86
2023/08/01 07:45:34;;;;;;;2.40;1.63;;;;;;;20.34;71.53;95886.59;4951780;28;20261;-86
2023/08/01 07:48:00;;;;;;;1.50;1.40;;;;;;;20.41;73.02;95886.00;4978064;23;20217;-85
2023/08/01 07:50:26;;;;;;;1.48;1.38;;;;;;;20.70;71.47;95889.34;5078050;22;20302;-85
2023/08/01 07:52:51;;;;;;;1.67;1.45;;;;;;;20.80;70.17;95896.78;5109793;22;20042;-87
2023/08/01 07:55:18;;;;;;;2.53;1.63;;;;;;;20.65;71.81;95884.31;4945118;28;20247;-84
2023/08/01 07:57:44;;;;;;;1.58;1.48;;;;;;;20.87;71.41;95898.81;4971856;22;20204;-86
2023/08/01 08:00:10;;;;;;;2.10;1.90;;;;;;;20.86;71.07;95898.06;5209402;22;20199;-86
2023/08/01 08:02:36;;;;;;;1.60;1.50;;;;;;;20.68;69.76;95896.88;4953726;28;20203;-87
2023/08/01 08:05:04;;;;;;;1.50;1.40;;;;;;;20.72;69.29;95910.97;4933309;28;20168;-86
2023/08/01 08:07:31;;;;;;;0.80;0.80;;;;;;;20.37;68.99;95914.22;4931073;28;20181;-84
2023/08/01 08:09:56;;;;;;;0.57;0.55;;;;;;;20.23;69.05;95937.63;4962540;28;20198;-88
2023/08/01 08:12:24;;;;;;;0.80;0.80;;;;;;;19.98;69.99;95913.94;4947032;28;20060;-87
2023/08/01 08:14:50;;;;;;;0.80;0.80;;;;;;;20.23;69.69;95943.69;4947676;28;20298;-87
2023/08/01 08:17:15;;;;;;;0.70;0.70;;;;;;;20.13;69.97;95926.41;4958966;28;20176;-86
2023/08/01 08:19:41;;;;;;;0.70;0.70;;;;;;;20.32;70.68;95940.88;4954471;28;20200;-87
2023/08/01 08:22:06;;;;;;;0.70;0.70;;;;;;;20.53;68.86;95945.97;4922622;28;20174;-85
2023/08/01 08:24:32;;;;;;;0.63;0.57;;;;;;;20.59;68.54;95931.38;4959510;28;20266;-85
2023/08/01 08:26:57;;;;;;;0.60;0.60;;;;;;;20.75;67.86;95918.97;4963091;28;20264;-85
2023/08/01 08:29:23;;;;;;;0.80;0.80;;;;;;;21.07;68.22;95937.47;4956633;28;20354;-84
2023/08/01 08:31:48;;;;;;;1.15;0.82;;;;;;;21.09;68.80;95931.84;4954377;28;20274;-85
2023/08/01 08:34:13;;;;;;;1.02;0.93;;;;;;;21.42;68.66;95936.78;4922612;28;20275;-84
2023/08/01 08:36:39;;;;;;;0.90;0.80;;;;;;;21.78;66.65;95940.22;4943993;28;20252;-84
2023/08/01 08:39:06;;;;;;;0.77;0.60;;;;;;;21.70;65.36;95946.47;4953591;28;20026;-84
2023/08/01 08:41:37;;;;;;;0.63;0.60;;;;;;;22.07;64.29;95938.09;4962075;28;20048;-83
2023/08/01 08:44:07;;;;;;;0.98;0.70;;;;;;;22.35;63.81;95942.47;4949293;28;20175;-84
2023/08/01 08:46:34;;;;;;;0.80;0.80;;;;;;;22.23;63.67;95936.16;4945442;28;20409;-84
2023/08/01 08:49:00;;;;;;;1.02;0.73;;;;;;;22.23;61.73;95930.84;4958292;28;20302;-85
2023/08/01 08:51:29;;;;;;;1.30;0.85;;;;;;;22.50;63.54;95938.16;4947452;28;20178;-83
2023/08/01 08:53:56;;;;;;;1.17;0.85;;;;;;;22.66;63.20;95946.81;4957127;28;20142;-86
2023/08/01 08:56:22;;;;;;;0.82;0.75;;;;;;;22.66;61.28;95946.03;4938985;28;20338;-83
2023/08/01 08:58:48;;;;;;;1.92;0.90;;;;;;;22.58;61.80;95951.22;4958135;28;20339;-83
2023/08/01 09:01:13;;;;;;;1.17;0.98;;;;;;;22.84;60.29;95949.75;4957593;28;20431;-82
2023/08/01 09:03:39;;;;;;;1.55;1.20;;;;;;;22.88;59.41;95949.84;4940734;28;20221;-83
2023/08/01 09:06:08;;;;;;;1.77;1.20;;;;;;;22.92;59.19;95948.75;4944260;28;20191;-84
2023/08/01 09:08:36;;;;;;;1.70;1.20;;;;;;;23.05;59.84;95956.53;4939075;28;20276;-84
2023/08/01 09:11:01;;;;;;;1.08;0.98;;;;;;;22.94;56.87;95957.13;4950754;28;20140;-84
2023/08/01 09:13:26;;;;;;;1.85;1.08;;;;;;;22.89;56.10;95960.06;4922333;28;20162;-85
2023/08/01 09:15:52;;;;;;;2.55;1.15;;;;;;;23.18;56.17;95965.88;4934941;28;20212;-84
2023/08/01 09:18:18;;;;;;;1.38;1.20;;;;;;;23.14;53.58;95959.75;4957397;28;20508;-86
2023/08/01 09:20:48;;;;;;;1.38;1.13;;;;;;;23.00;52.95;95958.38;4926002;28;20276;-83
2023/08/01 09:23:14;;;;;;;2.38;1.15;;;;;;;23.14;54.32;95973.03;4938929;28;20354;-84
2023/08/01 09:25:39;;;;;;;1.90;1.23;;;;;;;23.01;52.72;95967.09;4958293;28;20195;-83
2023/08/01 09:28:21;;;;;;;1.00;0.93;;;;;;;22.55;52.09;95970.50;4938457;28;20367;-81
2023/08/01 09:30:52;;;;;;;1.48;0.90;;;;;;;22.63;52.75;95969.50;4937217;28;20195;-83
2023/08/01 09:33:18;;;;;;;1.10;0.80;;;;;;;22.46;54.96;95961.97;4939216;28;20338;-84
2023/08/01 09:35:46;;;;;;;1.00;0.90;;;;;;;22.45;53.50;95968.41;4955530;28;20056;-84
2023/08/01 09:38:13;;;;;;;1.05;0.80;;;;;;;22.44;53.81;95964.97;4944656;28;20250;-83
2023/08/01 09:40:39;;;;;;;2.83;1.30;;;;;;;22.56;53.74;95973.91;4937659;28;20195;-83
2023/08/01 09:43:05;;;;;;;1.25;0.85;;;;;;;22.59;57.12;95973.97;4950107;28;20229;-83
2023/08/01 09:45:31;;;;;;;0.90;0.90;;;;;;;22.55;53.78;95959.09;4939184;28;20278;-83
2023/08/01 09:47:56;;;;;;;2.25;1.00;;;;;;;22.41;56.67;95970.22;4917693;28;20390;-83
2023/08/01 09:50:23;;;;;;;1.60;1.10;;;;;;;22.47;53.80;95976.78;4935673;28;20350;-83
2023/08/01 09:52:52;;;;;;;1.42;1.10;;;;;;;22.41;54.02;95978.19;4946912;28;20436;-84
2023/08/01 09:55:32;;;;;;;1.67;1.10;;;;;;;22.37;53.18;95983.41;4954046;28;20518;-82
2023/08/01 09:57:58;;;;;;;1.13;1.02;;;;;;;22.20;54.89;95997.84;4952450;28;20149;-83
2023/08/01 10:00:26;;;;;;;1.42;1.10;;;;;;;22.16;53.44;95993.59;4951125;28;20220;-82
2023/08/01 10:02:53;;;;;;;1.15;1.05;;;;;;;22.23;54.61;96005.09;4950430;28;20592;-82
2023/08/01 10:05:20;;;;;;;1.45;1.35;;;;;;;22.13;53.71;96003.00;4957139;28;20203;-83
2023/08/01 10:07:47;;;;;;;1.90;1.27;;;;;;;21.95;54.61;96007.16;4956448;28;20359;-81
2023/08/01 10:10:13;;;;;;;1.92;1.30;;;;;;;21.93;54.84;96012.03;4938361;28;20356;-82
2023/08/01 10:12:40;;;;;;;2.47;1.40;;;;;;;21.70;55.46;96015.34;4952309;28;20277;-80
2023/08/01 10:15:06;;;;;;;1.30;1.20;;;;;;;21.60;55.34;96015.88;4942678;28;20197;-82
2023/08/01 10:17:34;;;;;;;2.13;1.42;;;;;;;21.73;54.69;96022.63;4948163;28;20176;-83
2023/08/01 10:20:00;;;;;;;2.30;1.60;;;;;;;21.74;54.34;96023.38;4934984;28;20464;-82
2023/08/01 10:22:25;;;;;;;2.20;1.30;;;;;;;22.02;52.51;96004.66;4947874;28;20265;-81
2023/08/01 10:24:51;;;;;;;1.30;1.20;;;;;;;22.06;51.53;96008.16;4934372;28;20423;-80
2023/08/01 10:27:21;;;;;;;1.20;1.10;;;;;;;22.62;51.50;96018.38;4930841;28;20187;-82
2023/08/01 10:29:56;;;;;;;1.88;1.25;;;;;;;23.09;49.47;96010.50;4952229;28;20116;-81
2023/08/01 10:32:29;;;;;;;2.05;1.20;;;;;;;23.30;49.47;96023.34;4953539;28;20226;-82
2023/08/01 10:34:55;;;;;;;3.10;1.25;;;;;;;23.12;49.27;96012.44;4947953;28;20243;-81
2023/08/01 10:37:20;;;;;;;1.42;1.20;;;;;;;23.26;49.32;96025.19;4936197;28;20563;-83
2023/08/01 10:39:59;;;;;;;1.88;1.10;;;;;;;23.41;49.87;96018.97;4950991;28;20264;-82
2023/08/01 10:42:25;;;;;;;2.45;1.17;;;;;;;23.31;49.05;96020.34;4951068;28;20242;-80
2023/08/01 10:44:50;;;;;;;1.77;1.10;;;;;;;23.25;49.00;96019.09;4934353;28;20317;-81
2023/08/01 10:47:25;;;;;;;2.17;1.10;;;;;;;23.48;48.42;96010.34;4950667;28;20184;-80
2023/08/01 10:49:50;;;;;;;3.17;1.30;;;;;;;23.41;49.59;96011.00;4914305;28;20199;-82
2023/08/01 10:52:17;;;;;;;2.92;1.55;;;;;;;23.61;48.77;96024.94;4954393;28;20168;-82
2023/08/01 10:54:43;;;;;;;1.48;1.20;;;;;;;23.37;47.80;96021.59;4934575;28;20122;-81
2023/08/01 10:57:08;;;;;;;2.05;1.50;;;;;;;23.43;47.47;96018.63;4946827;28;20107;-80
2023/08/01 10:59:34;;;;;;;2.10;1.40;;;;;;;23.59;46.58;96027.19;4964266;28;20341;-81
2023/08/01 11:02:03;;;;;;;1.98;1.40;;;;;;;23.68;50.51;96019.75;4934984;28;20034;-81
2023/08/01 11:04:29;;;;;;;2.13;1.45;;;;;;;23.54;48.85;96024.84;4932907;28;20240;-81
2023/08/01 11:06:58;;;;;;;3.00;1.23;;;;;;;23.52;49.24;96035.06;4946316;28;20094;-83
2023/08/01 11:09:27;;;;;;;1.92;1.30;;;;;;;23.39;48.89;96047.78;4934458;28;20282;-81
2023/08/01 11:11:59;;;;;;;1.52;1.25;;;;;;;23.36;48.82;96049.25;4949388;28;20235;-81
2023/08/01 11:14:28;;;;;;;2.30;1.40;;;;;;;22.93;47.93;96018.53;4951702;28;20398;-83
2023/08/01 11:16:55;;;;;;;2.53;1.73;;;;;;;23.05;49.54;96041.47;4953981;28;20175;-84
2023/08/01 11:19:26;;;;;;;1.98;1.60;;;;;;;22.71;49.31;96038.63;4933542;28;20565;-82
2023/08/01 11:21:52;;;;;;;1.92;1.40;;;;;;;22.56;49.80;96048.94;4935141;28;20244;-84
2023/08/01 11:24:19;;;;;;;3.30;1.70;;;;;;;22.43;50.97;96048.34;4952087;28;20366;-83
2023/08/01 11:26:46;;;;;;;2.00;1.35;;;;;;;22.53;50.21;96054.19;4949604;28;20200;-82
2023/08/01 11:29:12;;;;;;;1.50;1.40;;;;;;;22.54;50.90;96067.09;4947176;28;20282;-82